createdAt,value
2018-10-17T00:01:37.100Z,10.80
2018-10-17T00:04:06.801Z,10.79
2018-10-17T00:06:35.968Z,10.76
2018-10-17T00:09:08.413Z,10.73
2018-10-17T00:11:37.942Z,10.72
2018-10-17T00:14:07.531Z,10.76
2018-10-17T00:16:36.827Z,10.68
2018-10-17T00:19:06.153Z,10.59
2018-10-17T00:21:35.165Z,10.58
2018-10-17T00:24:04.368Z,10.62
2018-10-17T00:26:33.904Z,10.59
2018-10-17T00:29:02.932Z,10.44
2018-10-17T00:31:32.004Z,10.42
2018-10-17T00:34:01.108Z,10.41
2018-10-17T00:36:30.174Z,10.41
2018-10-17T00:38:59.468Z,10.38
2018-10-17T00:41:28.564Z,10.36
2018-10-17T00:43:57.613Z,10.35
2018-10-17T00:46:26.985Z,10.24
2018-10-17T00:48:56.149Z,10.26
2018-10-17T00:51:25.132Z,10.27
2018-10-17T00:53:54.288Z,10.27
2018-10-17T00:56:23.381Z,10.29
2018-10-17T00:59:13.182Z,10.28
2018-10-17T01:01:42.176Z,10.27
2018-10-17T01:04:11.466Z,10.29
2018-10-17T01:06:40.808Z,10.29
2018-10-17T01:09:11.710Z,10.22
2018-10-17T01:11:41.140Z,10.12
2018-10-17T01:14:10.608Z,10.09
2018-10-17T01:16:39.760Z,10.07
2018-10-17T01:19:09.311Z,10.04
2018-10-17T01:21:38.338Z,10.00
2018-10-17T01:24:07.364Z,9.94
2018-10-17T01:26:36.501Z,9.99
2018-10-17T01:29:05.740Z,9.98
2018-10-17T01:31:34.777Z,9.99
2018-10-17T01:34:03.847Z,9.95
2018-10-17T01:36:32.876Z,9.89
2018-10-17T01:39:01.924Z,9.87
2018-10-17T01:41:31.068Z,9.82
2018-10-17T01:44:00.108Z,9.76
2018-10-17T01:46:29.137Z,9.75
2018-10-17T01:48:58.244Z,9.81
2018-10-17T01:51:27.312Z,9.74
2018-10-17T01:53:56.389Z,9.71
2018-10-17T01:56:26.060Z,9.70
2018-10-17T01:58:55.207Z,9.69
2018-10-17T02:01:24.536Z,9.69
2018-10-17T02:03:53.700Z,9.73
2018-10-17T02:06:22.785Z,9.70
2018-10-17T02:08:51.908Z,9.71
2018-10-17T02:11:20.964Z,9.71
2018-10-17T02:13:50.037Z,9.61
2018-10-17T02:16:19.088Z,9.57
2018-10-17T02:18:48.238Z,9.61
2018-10-17T02:21:17.358Z,9.61
2018-10-17T02:23:46.472Z,9.59
2018-10-17T02:26:15.568Z,9.51
2018-10-17T02:28:44.630Z,9.47
2018-10-17T02:31:13.775Z,9.47
2018-10-17T02:33:42.823Z,9.48
2018-10-17T02:36:11.925Z,9.36
2018-10-17T02:38:40.987Z,9.33
2018-10-17T02:41:10.107Z,9.36
2018-10-17T02:43:39.184Z,9.38
2018-10-17T02:46:08.221Z,9.43
2018-10-17T02:48:37.397Z,9.33
2018-10-17T02:51:06.548Z,9.31
2018-10-17T02:53:35.604Z,9.31
2018-10-17T02:56:04.701Z,9.29
2018-10-17T02:58:33.804Z,9.26
2018-10-17T03:01:02.944Z,9.21
2018-10-17T03:03:32.537Z,9.23
2018-10-17T03:06:01.683Z,9.18
2018-10-17T03:08:30.733Z,9.18
2018-10-17T03:10:59.851Z,9.15
2018-10-17T03:13:28.921Z,9.17
2018-10-17T03:15:57.988Z,9.06
2018-10-17T03:18:28.172Z,9.12
2018-10-17T03:20:58.104Z,9.15
2018-10-17T03:23:27.189Z,9.19
2018-10-17T03:25:56.524Z,9.23
2018-10-17T03:28:25.616Z,9.25
2018-10-17T03:30:54.789Z,9.26
2018-10-17T03:33:23.779Z,9.28
2018-10-17T03:35:53.413Z,9.29
2018-10-17T03:38:22.512Z,9.23
2018-10-17T03:40:51.618Z,9.20
2018-10-17T03:43:20.892Z,9.17
2018-10-17T03:45:49.993Z,9.10
2018-10-17T03:48:19.016Z,9.02
2018-10-17T03:50:48.116Z,8.86
2018-10-17T03:53:17.315Z,8.84
2018-10-17T03:55:46.368Z,8.79
2018-10-17T03:58:15.476Z,8.80
2018-10-17T04:00:44.597Z,8.72
2018-10-17T04:03:13.709Z,8.73
2018-10-17T04:05:42.740Z,8.77
2018-10-17T04:08:11.843Z,8.73
2018-10-17T04:10:40.900Z,8.77
2018-10-17T04:13:10.104Z,8.77
2018-10-17T04:15:39.192Z,8.77
2018-10-17T04:18:08.292Z,8.77
2018-10-17T04:20:37.463Z,8.72
2018-10-17T04:23:06.639Z,8.74
2018-10-17T04:25:35.576Z,8.73
2018-10-17T04:28:05.034Z,8.72
2018-10-17T04:30:34.072Z,8.69
2018-10-17T04:33:03.136Z,8.70
2018-10-17T04:35:32.216Z,8.71
2018-10-17T04:38:01.352Z,8.73
2018-10-17T04:40:30.384Z,8.70
2018-10-17T04:42:59.589Z,8.66
2018-10-17T04:45:29.188Z,8.72
2018-10-17T04:47:58.285Z,8.74
2018-10-17T04:50:27.728Z,8.67
2018-10-17T04:52:56.887Z,8.62
2018-10-17T04:55:25.888Z,8.51
2018-10-17T04:57:54.916Z,8.47
2018-10-17T05:00:24.068Z,8.46
2018-10-17T05:02:53.116Z,8.42
2018-10-17T05:05:22.209Z,8.38
2018-10-17T05:07:51.281Z,8.38
2018-10-17T05:10:20.392Z,8.35
2018-10-17T05:12:49.490Z,8.33
2018-10-17T05:15:18.598Z,8.28
2018-10-17T05:17:47.738Z,8.34
2018-10-17T05:20:17.364Z,8.37
2018-10-17T05:22:46.500Z,8.38
2018-10-17T05:25:15.595Z,8.39
2018-10-17T05:27:44.666Z,8.38
2018-10-17T05:30:13.769Z,8.38
2018-10-17T05:32:42.871Z,8.39
2018-10-17T05:35:12.140Z,8.39
2018-10-17T05:37:42.163Z,8.38
2018-10-17T05:40:11.248Z,8.31
2018-10-17T05:42:40.420Z,8.22
2018-10-17T05:45:09.596Z,8.25
2018-10-17T05:47:38.644Z,8.29
2018-10-17T05:50:07.752Z,8.19
2018-10-17T05:52:37.136Z,8.17
2018-10-17T05:55:06.868Z,8.17
2018-10-17T05:57:35.863Z,8.13
2018-10-17T06:00:06.860Z,8.18
2018-10-17T06:02:37.239Z,8.27
2018-10-17T06:05:08.038Z,8.30
2018-10-17T06:07:37.188Z,8.35
2018-10-17T06:10:08.182Z,8.43
2018-10-17T06:12:37.300Z,8.59
2018-10-17T06:15:07.017Z,8.67
2018-10-17T06:17:36.621Z,8.78
2018-10-17T06:20:06.945Z,8.93
2018-10-17T06:22:36.065Z,8.91
2018-10-17T06:25:06.111Z,9.00
2018-10-17T06:27:35.212Z,9.10
2018-10-17T06:30:05.372Z,9.27
2018-10-17T06:32:34.412Z,9.35
2018-10-17T06:35:03.554Z,9.45
2018-10-17T06:37:32.744Z,9.64
2018-10-17T06:40:02.260Z,9.80
2018-10-17T06:42:31.365Z,10.05
2018-10-17T06:45:00.412Z,10.42
2018-10-17T06:47:29.961Z,11.21
2018-10-17T06:49:58.976Z,12.63
2018-10-17T06:52:28.424Z,14.01
2018-10-17T06:54:57.582Z,15.45
2018-10-17T06:57:26.653Z,16.74
2018-10-17T06:59:55.772Z,17.89
2018-10-17T07:02:24.971Z,18.83
2018-10-17T07:04:54.020Z,19.76
2018-10-17T07:07:23.450Z,20.83
2018-10-17T07:09:52.505Z,21.93
2018-10-17T07:12:21.632Z,22.57
2018-10-17T07:14:50.740Z,23.54
2018-10-17T07:17:19.796Z,24.34
2018-10-17T07:19:48.927Z,25.05
2018-10-17T07:22:18.004Z,25.51
2018-10-17T07:24:47.058Z,25.30
2018-10-17T07:27:16.460Z,24.54
2018-10-17T07:29:45.704Z,23.52
2018-10-17T07:32:14.661Z,22.54
2018-10-17T07:34:43.720Z,19.58
2018-10-17T07:37:13.101Z,18.63
2018-10-17T07:39:42.358Z,20.13
2018-10-17T07:42:11.554Z,21.49
2018-10-17T07:44:40.704Z,22.08
2018-10-17T07:47:09.896Z,22.75
2018-10-17T07:49:40.013Z,23.42
2018-10-17T07:52:09.691Z,24.17
2018-10-17T07:54:38.984Z,24.75
2018-10-17T07:57:08.060Z,24.94
2018-10-17T07:59:37.236Z,25.19
2018-10-17T08:02:06.716Z,26.08
2018-10-17T08:04:35.776Z,26.84
2018-10-17T08:07:05.496Z,27.13
2018-10-17T08:09:34.554Z,27.27
2018-10-17T08:12:03.670Z,27.38
2018-10-17T08:14:32.716Z,27.67
2018-10-17T08:17:01.798Z,28.42
2018-10-17T08:19:30.872Z,28.94
2018-10-17T08:21:59.965Z,29.52
2018-10-17T08:24:29.076Z,29.37
2018-10-17T08:26:58.151Z,28.83
2018-10-17T08:29:27.277Z,28.90
2018-10-17T08:31:56.748Z,28.83
2018-10-17T08:34:25.833Z,29.18
2018-10-17T08:36:55.256Z,29.66
2018-10-17T08:39:24.073Z,29.75
2018-10-17T08:41:53.128Z,30.17
2018-10-17T08:44:22.264Z,30.86
2018-10-17T08:46:51.745Z,31.15
2018-10-17T08:49:20.864Z,31.11
2018-10-17T08:51:49.956Z,30.46
2018-10-17T08:54:19.116Z,25.98
2018-10-17T08:56:48.281Z,28.00
2018-10-17T08:59:17.390Z,29.91
2018-10-17T09:01:46.508Z,30.74
2018-10-17T09:04:15.820Z,31.35
2018-10-17T09:06:44.905Z,31.84
2018-10-17T09:09:14.440Z,31.93
2018-10-17T09:11:43.664Z,31.28
2018-10-17T09:14:13.464Z,31.97
2018-10-17T09:16:42.570Z,32.51
2018-10-17T09:19:11.720Z,32.05
2018-10-17T09:21:41.136Z,31.70
2018-10-17T09:24:10.497Z,31.61
2018-10-17T09:26:39.698Z,31.79
2018-10-17T09:29:08.950Z,31.57
2018-10-17T09:31:38.032Z,31.86
2018-10-17T09:34:07.129Z,31.96
2018-10-17T09:36:36.189Z,31.60
2018-10-17T09:39:07.913Z,33.14
2018-10-17T09:41:36.997Z,34.25
2018-10-17T09:44:06.126Z,28.37
2018-10-17T09:46:35.268Z,30.96
2018-10-17T09:49:04.481Z,32.56
2018-10-17T09:51:33.792Z,34.25
2018-10-17T09:54:02.945Z,33.97
2018-10-17T09:56:32.011Z,32.75
2018-10-17T09:59:01.148Z,34.72
2018-10-17T10:01:34.268Z,34.14
2018-10-17T10:04:03.391Z,29.48
2018-10-17T10:06:32.532Z,29.12
2018-10-17T10:09:01.856Z,32.10
2018-10-17T10:11:30.915Z,30.57
2018-10-17T10:14:00.037Z,31.83
2018-10-17T10:16:29.100Z,30.27
2018-10-17T10:18:58.616Z,31.48
2018-10-17T10:21:27.947Z,32.25
2018-10-17T10:23:57.103Z,28.64
2018-10-17T10:26:26.325Z,31.34
2018-10-17T10:28:55.572Z,32.95
2018-10-17T10:31:25.220Z,33.46
2018-10-17T10:33:54.388Z,33.87
2018-10-17T10:36:23.789Z,32.98
2018-10-17T10:38:52.891Z,31.95
2018-10-17T10:41:22.165Z,29.49
2018-10-17T10:43:51.362Z,28.09
2018-10-17T10:46:20.436Z,28.84
2018-10-17T10:48:49.594Z,28.46
2018-10-17T10:51:18.679Z,29.59
2018-10-17T10:53:47.729Z,31.04
2018-10-17T10:56:16.966Z,31.19
2018-10-17T10:58:46.172Z,32.56
2018-10-17T11:01:15.074Z,31.72
2018-10-17T11:03:44.153Z,28.94
2018-10-17T11:06:13.272Z,30.33
2018-10-17T11:08:42.640Z,28.02
2018-10-17T11:11:12.650Z,26.77
2018-10-17T11:13:41.612Z,28.08
2018-10-17T11:16:11.700Z,29.38
2018-10-17T11:18:40.863Z,29.42
2018-10-17T11:21:10.230Z,26.69
2018-10-17T11:23:39.363Z,27.24
2018-10-17T11:26:08.468Z,27.13
2018-10-17T11:28:37.589Z,27.60
2018-10-17T11:31:07.013Z,28.59
2018-10-17T11:33:36.133Z,29.32
2018-10-17T11:36:05.225Z,27.35
2018-10-17T11:38:34.344Z,28.75
2018-10-17T11:41:03.489Z,30.47
2018-10-17T11:43:32.593Z,29.72
2018-10-17T11:46:01.732Z,30.86
2018-10-17T11:48:30.956Z,31.56
2018-10-17T11:51:00.059Z,32.69
2018-10-17T11:53:30.151Z,30.03
2018-10-17T11:55:59.188Z,31.43
2018-10-17T11:58:28.482Z,30.19
2018-10-17T12:00:57.636Z,30.42
2018-10-17T12:03:26.926Z,30.59
2018-10-17T12:05:56.197Z,30.56
2018-10-17T12:08:24.988Z,30.71
2018-10-17T12:10:54.121Z,30.18
2018-10-17T12:13:23.242Z,29.73
2018-10-17T12:15:52.324Z,30.56
2018-10-17T12:18:21.425Z,29.52
2018-10-17T12:20:50.524Z,29.83
2018-10-17T12:23:19.658Z,30.17
2018-10-17T12:25:48.755Z,31.01
2018-10-17T12:28:17.966Z,31.61
2018-10-17T12:30:47.020Z,30.16
2018-10-17T12:33:16.193Z,29.38
2018-10-17T12:35:45.204Z,30.09
2018-10-17T12:38:14.307Z,30.91
2018-10-17T12:40:43.626Z,30.44
2018-10-17T12:43:12.620Z,31.07
2018-10-17T12:45:41.800Z,30.59
2018-10-17T12:48:10.872Z,30.24
2018-10-17T12:50:40.016Z,29.18
2018-10-17T12:53:09.186Z,28.77
2018-10-17T12:55:38.565Z,28.60
2018-10-17T12:58:07.705Z,27.59
2018-10-17T13:00:36.966Z,28.07
2018-10-17T13:03:06.287Z,27.02
2018-10-17T13:05:35.602Z,26.52
2018-10-17T13:08:04.829Z,26.89
2018-10-17T13:10:33.904Z,28.52
2018-10-17T13:13:03.005Z,28.35
2018-10-17T13:15:32.149Z,27.52
2018-10-17T13:18:01.281Z,27.00
2018-10-17T13:20:30.580Z,27.35
2018-10-17T13:22:59.723Z,27.71
2018-10-17T13:25:28.782Z,27.29
2018-10-17T13:27:57.880Z,28.67
2018-10-17T13:30:26.969Z,29.38
2018-10-17T13:32:56.120Z,29.83
2018-10-17T13:35:25.189Z,27.88
2018-10-17T13:37:54.438Z,26.57
2018-10-17T13:40:23.476Z,26.57
2018-10-17T13:42:52.624Z,26.01
2018-10-17T13:45:21.795Z,26.17
2018-10-17T13:47:50.903Z,25.74
2018-10-17T13:50:20.005Z,25.86
2018-10-17T13:52:49.116Z,25.92
2018-10-17T13:55:18.188Z,26.04
2018-10-17T13:57:47.268Z,26.16
2018-10-17T14:00:16.376Z,26.29
2018-10-17T14:02:45.508Z,25.50
2018-10-17T14:05:14.948Z,25.04
2018-10-17T14:07:44.004Z,25.28
2018-10-17T14:10:13.076Z,25.37
2018-10-17T14:12:42.185Z,25.30
2018-10-17T14:15:11.307Z,24.77
2018-10-17T14:17:40.428Z,25.10
2018-10-17T14:20:09.489Z,25.10
2018-10-17T14:22:38.589Z,25.16
2018-10-17T14:25:07.661Z,24.67
2018-10-17T14:27:36.737Z,24.42
2018-10-17T14:30:07.558Z,24.16
2018-10-17T14:32:36.613Z,23.95
2018-10-17T14:35:08.784Z,23.82
2018-10-17T14:37:37.898Z,23.66
2018-10-17T14:40:07.194Z,23.90
2018-10-17T14:42:36.348Z,24.06
2018-10-17T14:45:07.227Z,23.51
2018-10-17T14:47:36.320Z,23.31
2018-10-17T14:50:05.612Z,23.34
2018-10-17T14:52:35.072Z,23.17
2018-10-17T14:55:04.264Z,23.13
2018-10-17T14:57:33.377Z,23.30
2018-10-17T15:00:02.496Z,23.71
2018-10-17T15:02:31.585Z,23.78
2018-10-17T15:05:00.758Z,23.61
2018-10-17T15:07:29.884Z,23.54
2018-10-17T15:09:58.989Z,22.84
2018-10-17T15:12:28.056Z,23.02
2018-10-17T15:14:57.345Z,23.32
2018-10-17T15:17:26.484Z,23.40
2018-10-17T15:19:55.567Z,23.57
2018-10-17T15:22:24.652Z,23.34
2018-10-17T15:24:54.111Z,23.01
2018-10-17T15:27:23.188Z,22.62
2018-10-17T15:29:52.297Z,22.50
2018-10-17T15:32:21.344Z,22.78
2018-10-17T15:34:50.616Z,22.82
2018-10-17T15:37:19.651Z,22.59
2018-10-17T15:39:48.694Z,22.37
2018-10-17T15:42:18.161Z,22.09
2018-10-17T15:44:47.157Z,22.05
2018-10-17T15:47:16.280Z,22.09
2018-10-17T15:49:45.531Z,22.06
2018-10-17T15:52:14.592Z,22.08
2018-10-17T15:54:43.725Z,22.17
2018-10-17T15:57:12.931Z,22.15
2018-10-17T15:59:41.891Z,21.97
2018-10-17T16:02:11.095Z,21.81
2018-10-17T16:04:40.161Z,21.67
2018-10-17T16:07:09.308Z,21.65
2018-10-17T16:09:38.343Z,21.53
2018-10-17T16:12:07.479Z,21.25
2018-10-17T16:14:36.900Z,21.00
2018-10-17T16:17:06.381Z,20.83
2018-10-17T16:19:35.465Z,20.68
2018-10-17T16:22:04.853Z,20.48
2018-10-17T16:24:33.948Z,20.35
2018-10-17T16:27:02.984Z,20.23
2018-10-17T16:29:32.085Z,20.09
2018-10-17T16:32:01.235Z,19.84
2018-10-17T16:34:30.284Z,19.71
2018-10-17T16:36:59.397Z,19.59
2018-10-17T16:39:28.533Z,19.61
2018-10-17T16:41:57.602Z,19.54
2018-10-17T16:44:26.808Z,19.41
2018-10-17T16:46:55.909Z,19.24
2018-10-17T16:49:25.073Z,19.18
2018-10-17T16:51:54.152Z,19.11
2018-10-17T16:54:23.228Z,19.02
2018-10-17T16:56:52.339Z,18.86
2018-10-17T16:59:21.490Z,18.78
2018-10-17T17:01:50.585Z,18.69
2018-10-17T17:04:19.733Z,18.65
2018-10-17T17:06:48.852Z,18.56
2018-10-17T17:09:18.013Z,18.54
2018-10-17T17:11:47.037Z,18.43
2018-10-17T17:14:16.165Z,18.28
2018-10-17T17:16:45.269Z,18.22
2018-10-17T17:19:14.548Z,18.10
2018-10-17T17:21:43.643Z,18.06
2018-10-17T17:24:13.007Z,17.99
2018-10-17T17:26:41.984Z,17.95
2018-10-17T17:29:11.064Z,17.85
2018-10-17T17:31:40.176Z,17.76
2018-10-17T17:34:09.244Z,17.60
2018-10-17T17:36:38.373Z,17.54
2018-10-17T17:39:09.233Z,17.44
2018-10-17T17:41:38.519Z,17.40
2018-10-17T17:44:07.609Z,17.34
2018-10-17T17:46:36.761Z,17.32
2018-10-17T17:49:05.901Z,17.19
2018-10-17T17:51:34.960Z,17.15
2018-10-17T17:54:04.017Z,17.07
2018-10-17T17:56:33.096Z,17.01
2018-10-17T17:59:02.158Z,16.84
2018-10-17T18:01:31.276Z,16.74
2018-10-17T18:04:00.625Z,16.71
2018-10-17T18:06:29.660Z,16.67
2018-10-17T18:08:58.731Z,16.71
2018-10-17T18:11:27.860Z,16.66
2018-10-17T18:13:58.177Z,16.59
2018-10-17T18:16:27.236Z,16.53
2018-10-17T18:18:56.376Z,16.46
2018-10-17T18:21:25.724Z,16.37
2018-10-17T18:23:54.829Z,16.37
2018-10-17T18:26:23.912Z,16.30
2018-10-17T18:28:52.985Z,16.28
2018-10-17T18:31:22.469Z,16.22
2018-10-17T18:33:51.573Z,16.08
2018-10-17T18:36:20.625Z,16.08
2018-10-17T18:38:49.721Z,15.99
2018-10-17T18:41:18.824Z,15.84
2018-10-17T18:43:47.949Z,15.72
2018-10-17T18:46:17.247Z,15.71
2018-10-17T18:48:46.341Z,15.73
2018-10-17T18:51:15.468Z,15.66
2018-10-17T18:53:44.532Z,15.60
2018-10-17T18:56:13.726Z,15.56
2018-10-17T18:58:42.701Z,15.49
2018-10-17T19:01:11.838Z,15.43
2018-10-17T19:03:40.908Z,15.39
2018-10-17T19:06:10.316Z,15.30
2018-10-17T19:08:39.684Z,15.29
2018-10-17T19:11:08.759Z,15.27
2018-10-17T19:13:37.884Z,15.27
2018-10-17T19:16:07.011Z,15.15
2018-10-17T19:18:36.064Z,15.03
2018-10-17T19:21:05.227Z,14.97
2018-10-17T19:23:34.256Z,14.85
2018-10-17T19:26:03.344Z,14.79
2018-10-17T19:28:32.569Z,14.79
2018-10-17T19:31:01.632Z,14.78
2018-10-17T19:33:30.768Z,14.77
2018-10-17T19:35:59.915Z,14.68
2018-10-17T19:38:28.945Z,14.63
2018-10-17T19:40:58.024Z,14.59
2018-10-17T19:43:27.132Z,14.60
2018-10-17T19:45:56.253Z,14.53
2018-10-17T19:48:25.312Z,14.49
2018-10-17T19:50:54.470Z,14.48
2018-10-17T19:53:23.516Z,14.45
2018-10-17T19:55:52.680Z,14.44
2018-10-17T19:58:21.732Z,14.35
2018-10-17T20:00:50.925Z,14.31
2018-10-17T20:03:20.000Z,14.33
2018-10-17T20:05:49.160Z,14.27
2018-10-17T20:08:18.218Z,14.19
2018-10-17T20:10:47.284Z,14.13
2018-10-17T20:13:16.472Z,14.10
2018-10-17T20:15:45.517Z,14.08
2018-10-17T20:18:14.577Z,14.08
2018-10-17T20:20:43.693Z,14.04
2018-10-17T20:23:12.831Z,13.98
2018-10-17T20:25:41.881Z,13.91
2018-10-17T20:28:10.940Z,13.85
2018-10-17T20:30:40.040Z,13.73
2018-10-17T20:33:09.359Z,13.67
2018-10-17T20:35:38.376Z,13.64
2018-10-17T20:38:07.588Z,13.63
2018-10-17T20:40:36.673Z,13.58
2018-10-17T20:43:05.852Z,13.53
2018-10-17T20:45:34.944Z,13.48
2018-10-17T20:48:04.049Z,13.46
2018-10-17T20:50:33.132Z,13.38
2018-10-17T20:53:02.204Z,13.34
2018-10-17T20:55:31.333Z,13.32
2018-10-17T20:58:00.698Z,13.26
2018-10-17T21:00:29.854Z,13.22
2018-10-17T21:02:59.297Z,13.23
2018-10-17T21:05:28.808Z,13.21
2018-10-17T21:07:57.935Z,13.22
2018-10-17T21:10:27.037Z,13.18
2018-10-17T21:12:56.140Z,13.15
2018-10-17T21:15:25.220Z,13.16
2018-10-17T21:17:54.531Z,13.14
2018-10-17T21:20:23.608Z,13.07
2018-10-17T21:22:52.993Z,12.91
2018-10-17T21:25:22.094Z,12.80
2018-10-17T21:27:51.176Z,12.74
2018-10-17T21:30:20.289Z,12.72
2018-10-17T21:32:49.370Z,12.74
2018-10-17T21:35:18.965Z,12.77
2018-10-17T21:37:48.038Z,12.77
2018-10-17T21:40:17.100Z,12.75
2018-10-17T21:42:46.224Z,12.76
2018-10-17T21:45:15.316Z,12.76
2018-10-17T21:47:44.376Z,12.76
2018-10-17T21:50:13.603Z,12.75
2018-10-17T21:52:43.521Z,12.74
2018-10-17T21:55:12.578Z,12.69
2018-10-17T21:57:41.632Z,12.63
2018-10-17T22:00:11.420Z,12.56
2018-10-17T22:02:40.620Z,12.56
2018-10-17T22:05:10.772Z,12.63
2018-10-17T22:07:39.923Z,12.64
2018-10-17T22:10:09.648Z,12.64
2018-10-17T22:12:38.876Z,12.66
2018-10-17T22:15:08.832Z,12.65
2018-10-17T22:17:37.943Z,12.52
2018-10-17T22:20:07.866Z,12.53
2018-10-17T22:22:36.974Z,12.39
2018-10-17T22:25:07.265Z,12.35
2018-10-17T22:27:36.376Z,12.30
2018-10-17T22:30:06.504Z,12.29
2018-10-17T22:32:36.004Z,12.21
2018-10-17T22:35:05.396Z,12.17
2018-10-17T22:37:34.540Z,12.19
2018-10-17T22:40:03.681Z,12.23
2018-10-17T22:42:32.863Z,12.30
2018-10-17T22:45:01.979Z,12.32
2018-10-17T22:47:31.048Z,12.34
2018-10-17T22:50:00.244Z,12.34
2018-10-17T22:52:29.552Z,12.29
2018-10-17T22:54:58.659Z,12.22
2018-10-17T22:57:27.788Z,12.10
2018-10-17T22:59:57.052Z,12.06
2018-10-17T23:02:26.165Z,12.11
2018-10-17T23:04:55.368Z,12.13
2018-10-17T23:07:25.901Z,12.07
2018-10-17T23:09:54.970Z,12.06
2018-10-17T23:12:24.348Z,12.07
2018-10-17T23:14:53.477Z,12.08
2018-10-17T23:17:22.564Z,12.08
2018-10-17T23:19:51.669Z,12.11
2018-10-17T23:22:20.865Z,12.01
2018-10-17T23:24:49.989Z,12.02
2018-10-17T23:27:19.137Z,11.97
2018-10-17T23:29:48.232Z,11.95
2018-10-17T23:32:17.784Z,11.87
2018-10-17T23:34:47.024Z,11.84
2018-10-17T23:37:16.212Z,11.86
2018-10-17T23:39:45.344Z,11.89
2018-10-17T23:42:14.566Z,11.93
2018-10-17T23:44:44.044Z,11.99
2018-10-17T23:47:13.211Z,11.98
2018-10-17T23:49:42.772Z,11.69
2018-10-17T23:52:11.847Z,11.69
2018-10-17T23:54:40.928Z,11.78
2018-10-17T23:57:10.088Z,11.78
2018-10-17T23:59:39.220Z,11.85
